sensor_id;sensor_type;location;lat;lon;timestamp;pressure;altitude;pressure_sealevel;temperature;humidity
51081;BME280;37130;55.670;37.596;2023-05-25T04:24:56;99504.22;;;28.61;56.36
51081;BME280;37130;55.670;37.596;2023-05-25T04:27:25;99501.38;;;29.27;53.40
51081;BME280;37130;55.670;37.596;2023-05-25T04:29:54;99511.22;;;30.06;50.43
51081;BME280;37130;55.670;37.596;2023-05-25T04:32:54;99511.03;;;30.14;49.56
51081;BME280;37130;55.670;37.596;2023-05-25T04:35:48;99510.16;;;30.07;49.32
51081;BME280;37130;55.670;37.596;2023-05-25T04:38:18;99519.75;;;29.96;48.07
51081;BME280;37130;55.670;37.596;2023-05-25T04:40:46;99517.06;;;30.38;47.07
51081;BME280;37130;55.670;37.596;2023-05-25T04:43:14;99528.22;;;30.91;45.75
51081;BME280;37130;55.670;37.596;2023-05-25T04:45:45;99517.94;;;31.19;44.67
51081;BME280;37130;55.670;37.596;2023-05-25T04:48:13;99519.38;;;30.95;44.17
51081;BME280;37130;55.670;37.596;2023-05-25T04:50:41;99518.75;;;30.87;44.23
51081;BME280;37130;55.670;37.596;2023-05-25T04:53:09;99512.72;;;31.38;43.55
51081;BME280;37130;55.670;37.596;2023-05-25T04:55:37;99506.22;;;30.64;43.51
51081;BME280;37130;55.670;37.596;2023-05-25T04:58:06;99491.53;;;29.82;44.68
51081;BME280;37130;55.670;37.596;2023-05-25T05:00:34;99507.31;;;28.94;45.67
51081;BME280;37130;55.670;37.596;2023-05-25T05:03:03;99507.16;;;28.59;46.59
51081;BME280;37130;55.670;37.596;2023-05-25T05:05:31;99516.13;;;28.53;46.02
51081;BME280;37130;55.670;37.596;2023-05-25T05:08:01;99507.94;;;28.53;45.56
51081;BME280;37130;55.670;37.596;2023-05-25T21:03:37;99355.53;;;13.67;83.69
51081;BME280;37130;55.670;37.596;2023-05-25T21:06:06;99347.91;;;13.75;86.01
51081;BME280;37130;55.670;37.596;2023-05-25T21:08:33;99336.75;;;13.82;87.13
51081;BME280;37130;55.670;37.596;2023-05-25T21:11:01;99325.16;;;13.84;88.15
51081;BME280;37130;55.670;37.596;2023-05-25T21:13:29;99340.78;;;14.02;88.77
51081;BME280;37130;55.670;37.596;2023-05-25T21:15:56;99338.66;;;14.08;89.42
51081;BME280;37130;55.670;37.596;2023-05-25T21:18:24;99339.09;;;14.14;89.94
51081;BME280;37130;55.670;37.596;2023-05-25T21:20:51;99295.72;;;13.99;90.24
51081;BME280;37130;55.670;37.596;2023-05-25T21:23:19;99335.63;;;14.27;90.35
51081;BME280;37130;55.670;37.596;2023-05-25T21:25:46;99317.63;;;14.30;90.92
51081;BME280;37130;55.670;37.596;2023-05-25T21:28:14;99323.59;;;14.34;91.15
51081;BME280;37130;55.670;37.596;2023-05-25T21:30:42;99310.38;;;14.32;90.95
51081;BME280;37130;55.670;37.596;2023-05-25T21:33:09;99313.88;;;14.33;90.95
51081;BME280;37130;55.670;37.596;2023-05-25T21:35:37;99322.63;;;14.35;91.35
51081;BME280;37130;55.670;37.596;2023-05-25T21:38:05;99320.94;;;14.34;91.51
51081;BME280;37130;55.670;37.596;2023-05-25T21:40:32;99319.88;;;14.36;91.88
51081;BME280;37130;55.670;37.596;2023-05-25T21:43:00;99295.63;;;14.14;91.63
51081;BME280;37130;55.670;37.596;2023-05-25T21:45:28;99321.34;;;14.28;91.85
51081;BME280;37130;55.670;37.596;2023-05-25T21:47:56;99303.63;;;14.14;91.94
51081;BME280;37130;55.670;37.596;2023-05-25T21:50:23;99325.94;;;14.25;91.70
51081;BME280;37130;55.670;37.596;2023-05-25T21:52:52;99326.66;;;14.28;92.10
51081;BME280;37130;55.670;37.596;2023-05-25T21:55:19;99313.34;;;14.28;91.85
51081;BME280;37130;55.670;37.596;2023-05-25T21:57:47;99320.41;;;14.29;92.02
51081;BME280;37130;55.670;37.596;2023-05-25T22:00:15;99291.06;;;14.16;92.05
51081;BME280;37130;55.670;37.596;2023-05-25T22:02:43;99290.00;;;14.18;91.61
51081;BME280;37130;55.670;37.596;2023-05-25T22:05:10;99307.50;;;14.35;91.88
51081;BME280;37130;55.670;37.596;2023-05-25T22:07:38;99308.69;;;14.31;91.87
51081;BME280;37130;55.670;37.596;2023-05-25T22:10:06;99314.66;;;14.35;91.90
51081;BME280;37130;55.670;37.596;2023-05-25T22:12:34;99311.22;;;14.33;92.12
51081;BME280;37130;55.670;37.596;2023-05-25T22:15:03;99305.19;;;14.31;92.17
51081;BME280;37130;55.670;37.596;2023-05-25T22:17:31;99278.81;;;14.13;92.21
51081;BME280;37130;55.670;37.596;2023-05-25T22:19:59;99305.19;;;14.31;91.98
51081;BME280;37130;55.670;37.596;2023-05-25T22:22:34;99304.41;;;14.29;92.35
51081;BME280;37130;55.670;37.596;2023-05-25T22:25:04;99280.72;;;14.11;92.60
51081;BME280;37130;55.670;37.596;2023-05-25T22:27:32;99304.50;;;14.27;92.25
51081;BME280;37130;55.670;37.596;2023-05-25T22:29:59;99301.00;;;14.27;92.52
51081;BME280;37130;55.670;37.596;2023-05-25T22:32:29;99303.75;;;14.25;92.32
51081;BME280;37130;55.670;37.596;2023-05-25T22:34:57;99304.81;;;14.22;92.51
51081;BME280;37130;55.670;37.596;2023-05-25T22:37:25;99307.69;;;14.19;92.48
51081;BME280;37130;55.670;37.596;2023-05-25T22:39:52;99304.28;;;14.17;92.46
51081;BME280;37130;55.670;37.596;2023-05-25T22:42:20;99283.69;;;14.07;92.96
51081;BME280;37130;55.670;37.596;2023-05-25T22:44:48;99302.34;;;14.19;92.87
51081;BME280;37130;55.670;37.596;2023-05-25T22:47:17;99293.66;;;14.17;92.62
51081;BME280;37130;55.670;37.596;2023-05-25T22:49:44;99295.63;;;14.14;92.69
51081;BME280;37130;55.670;37.596;2023-05-25T22:52:12;99277.72;;;14.03;92.91
51081;BME280;37130;55.670;37.596;2023-05-25T22:54:40;99297.38;;;14.15;93.18
51081;BME280;37130;55.670;37.596;2023-05-25T22:57:08;99299.06;;;14.16;92.78
51081;BME280;37130;55.670;37.596;2023-05-25T22:59:36;99292.13;;;14.13;93.10
51081;BME280;37130;55.670;37.596;2023-05-25T23:02:03;99268.22;;;13.99;92.94
51081;BME280;37130;55.670;37.596;2023-05-25T23:04:33;99287.00;;;14.10;93.09
51081;BME280;37130;55.670;37.596;2023-05-25T23:07:01;99294.34;;;14.07;93.27
51081;BME280;37130;55.670;37.596;2023-05-25T23:09:29;99282.63;;;13.96;92.98
51081;BME280;37130;55.670;37.596;2023-05-25T23:11:57;99280.06;;;13.95;93.57
51081;BME280;37130;55.670;37.596;2023-05-25T23:14:24;99293.44;;;13.93;93.29
51081;BME280;37130;55.670;37.596;2023-05-25T23:16:54;99301.75;;;13.89;93.31
51081;BME280;37130;55.670;37.596;2023-05-25T23:19:22;99264.19;;;13.66;93.47
51081;BME280;37130;55.670;37.596;2023-05-25T23:21:51;99299.19;;;13.87;93.63
51081;BME280;37130;55.670;37.596;2023-05-25T23:24:20;99298.13;;;13.90;93.22
51081;BME280;37130;55.670;37.596;2023-05-25T23:26:48;99303.25;;;13.93;93.19
51081;BME280;37130;55.670;37.596;2023-05-25T23:29:16;99295.19;;;13.94;93.27
51081;BME280;37130;55.670;37.596;2023-05-25T23:31:43;99296.88;;;13.95;93.19
51081;BME280;37130;55.670;37.596;2023-05-25T23:34:11;99291.66;;;13.94;93.46
51081;BME280;37130;55.670;37.596;2023-05-25T23:36:39;99296.88;;;13.95;93.40
51081;BME280;37130;55.670;37.596;2023-05-25T23:39:06;99306.75;;;13.93;93.28
51081;BME280;37130;55.670;37.596;2023-05-25T23:41:35;99312.41;;;13.89;93.29
51081;BME280;37130;55.670;37.596;2023-05-25T23:44:02;99307.25;;;13.86;93.51
51081;BME280;37130;55.670;37.596;2023-05-25T23:46:30;99302.91;;;13.85;93.79
51081;BME280;37130;55.670;37.596;2023-05-25T23:48:58;99315.06;;;13.89;93.34
51081;BME280;37130;55.670;37.596;2023-05-25T23:51:25;99316.31;;;13.83;93.71
51081;BME280;37130;55.670;37.596;2023-05-25T23:53:53;99291.84;;;13.64;93.36
51081;BME280;37130;55.670;37.596;2023-05-25T23:56:21;99312.44;;;13.74;94.06
51081;BME280;37130;55.670;37.596;2023-05-25T23:58:48;99309.03;;;13.72;94.06
